createdAt,value
2018-12-16T00:00:40.215Z,100481.20
2018-12-16T00:01:42.774Z,100483.30
2018-12-16T00:02:45.254Z,100480.77
2018-12-16T00:03:47.712Z,100481.04
2018-12-16T00:04:50.257Z,100490.42
2018-12-16T00:05:52.794Z,100479.16
2018-12-16T00:06:55.294Z,100473.31
2018-12-16T00:07:57.766Z,100494.31
2018-12-16T00:09:00.246Z,100491.66
2018-12-16T00:10:02.781Z,100494.18
2018-12-16T00:11:05.346Z,100500.36
2018-12-16T00:12:07.856Z,100497.13
2018-12-16T00:13:10.334Z,100501.59
2018-12-16T00:14:12.815Z,100501.03
2018-12-16T00:15:15.289Z,100513.09
2018-12-16T00:16:17.766Z,100509.36
2018-12-16T00:17:20.275Z,100518.66
2018-12-16T00:18:22.750Z,100509.03
2018-12-16T00:19:25.226Z,100520.95
2018-12-16T00:21:29.531Z,100512.28
2018-12-16T00:22:32.036Z,100515.84
2018-12-16T00:23:34.532Z,100511.37
2018-12-16T00:24:36.991Z,100510.81
2018-12-16T00:25:39.470Z,100500.36
2018-12-16T00:26:53.892Z,100505.88
2018-12-16T00:27:56.391Z,100497.37
2018-12-16T00:28:58.849Z,100487.72
2018-12-16T00:30:01.325Z,100477.34
2018-12-16T00:31:03.886Z,100469.08
2018-12-16T00:32:06.500Z,100472.98
2018-12-16T00:33:08.982Z,100458.13
2018-12-16T00:34:11.474Z,100449.63
2018-12-16T00:35:14.008Z,100451.24
2018-12-16T00:36:16.478Z,100450.44
2018-12-16T00:37:18.959Z,100439.92
2018-12-16T00:38:21.444Z,100437.41
2018-12-16T00:39:23.932Z,100425.00
2018-12-16T00:40:26.411Z,100434.91
2018-12-16T00:41:28.890Z,100435.38
2018-12-16T00:42:31.356Z,100435.38
2018-12-16T00:43:33.846Z,100439.75
2018-12-16T00:44:36.315Z,100436.19
2018-12-16T00:45:38.786Z,100435.95
2018-12-16T00:46:41.244Z,100433.27
2018-12-16T00:48:45.532Z,100441.53
2018-12-16T00:49:48.020Z,100434.98
2018-12-16T00:50:50.512Z,100433.91
2018-12-16T00:51:52.972Z,100423.80
2018-12-16T00:52:55.451Z,100419.77
2018-12-16T00:53:57.927Z,100414.83
2018-12-16T00:55:00.387Z,100421.05
2018-12-16T00:56:02.852Z,100412.55
2018-12-16T00:57:05.342Z,100406.13
2018-12-16T00:58:07.978Z,100401.12
2018-12-16T00:59:10.473Z,100407.74
2018-12-16T01:00:14.160Z,100406.86
2018-12-16T01:01:16.631Z,100405.98
2018-12-16T01:02:24.826Z,100402.97
2018-12-16T01:03:27.302Z,100394.70
2018-12-16T01:04:29.799Z,100384.18
2018-12-16T01:05:32.270Z,100400.95
2018-12-16T01:06:34.801Z,100399.34
2018-12-16T01:07:37.440Z,100402.50
2018-12-16T01:08:39.910Z,100396.48
2018-12-16T01:09:42.410Z,100399.01
2018-12-16T01:10:44.887Z,100390.28
2018-12-16T01:11:47.344Z,100396.69
2018-12-16T01:12:49.803Z,100398.77
2018-12-16T01:13:52.293Z,100394.17
2018-12-16T01:14:54.774Z,100388.33
2018-12-16T01:15:57.246Z,100376.27
2018-12-16T01:16:59.722Z,100380.63
2018-12-16T01:18:02.188Z,100386.61
2018-12-16T01:19:04.666Z,100388.23
2018-12-16T01:20:07.606Z,100382.14
2018-12-16T01:21:10.064Z,100395.69
2018-12-16T01:22:12.519Z,100393.27
2018-12-16T01:23:14.983Z,100390.98
2018-12-16T01:24:18.371Z,100377.70
2018-12-16T01:25:21.074Z,100382.31
2018-12-16T01:26:23.545Z,100384.98
2018-12-16T01:27:26.094Z,100379.31
2018-12-16T01:28:28.585Z,100383.61
2018-12-16T01:29:31.072Z,100378.10
2018-12-16T01:30:33.579Z,100378.17
2018-12-16T01:31:36.130Z,100379.31
2018-12-16T01:32:38.614Z,100376.06
2018-12-16T01:33:41.086Z,100366.19
2018-12-16T01:34:43.573Z,100370.55
2018-12-16T01:35:46.044Z,100373.31
2018-12-16T01:36:48.523Z,100366.92
2018-12-16T01:37:51.007Z,100363.02
2018-12-16T01:38:53.476Z,100369.91
2018-12-16T01:40:57.734Z,100365.70
2018-12-16T01:42:00.206Z,100355.26
2018-12-16T01:43:02.668Z,100363.75
2018-12-16T01:44:05.233Z,100360.20
2018-12-16T01:46:09.564Z,100353.95
2018-12-16T01:47:12.107Z,100349.33
2018-12-16T01:48:14.578Z,100342.20
2018-12-16T01:49:17.035Z,100349.19
2018-12-16T01:50:19.521Z,100348.39
2018-12-16T01:51:22.032Z,100340.00
2018-12-16T01:52:24.528Z,100341.94
2018-12-16T01:53:27.007Z,100353.77
2018-12-16T01:54:29.501Z,100349.97
2018-12-16T01:55:31.986Z,100343.32
2018-12-16T01:56:34.498Z,100342.98
2018-12-16T01:57:36.978Z,100341.38
2018-12-16T01:58:39.431Z,100330.12
2018-12-16T01:59:42.074Z,100326.80
2018-12-16T02:00:44.537Z,100319.34
2018-12-16T02:01:52.701Z,100317.05
2018-12-16T02:02:55.160Z,100320.95
2018-12-16T02:03:57.638Z,100317.63
2018-12-16T02:05:00.101Z,100325.55
2018-12-16T02:06:02.570Z,100317.05
2018-12-16T02:07:05.130Z,100320.14
2018-12-16T02:08:07.674Z,100317.96
2018-12-16T02:09:12.147Z,100313.02
2018-12-16T02:10:14.776Z,100314.51
2018-12-16T02:11:17.284Z,100309.91
2018-12-16T02:12:19.894Z,100307.16
2018-12-16T02:13:22.370Z,100307.96
2018-12-16T02:14:25.020Z,100304.41
2018-12-16T02:15:27.476Z,100306.58
2018-12-16T02:16:29.948Z,100309.00
2018-12-16T02:17:32.461Z,100307.28
2018-12-16T02:18:34.935Z,100299.15
2018-12-16T02:19:37.406Z,100299.38
2018-12-16T02:20:39.904Z,100301.22
2018-12-16T02:21:42.384Z,100294.23
2018-12-16T02:22:44.878Z,100290.20
2018-12-16T02:23:47.358Z,100287.69
2018-12-16T02:24:49.816Z,100285.97
2018-12-16T02:25:52.294Z,100276.33
2018-12-16T02:26:54.757Z,100277.70
2018-12-16T02:27:57.266Z,100274.72
2018-12-16T02:28:59.767Z,100267.37
2018-12-16T02:30:02.245Z,100273.22
2018-12-16T02:31:04.720Z,100258.74
2018-12-16T02:32:07.221Z,100269.77
2018-12-16T02:33:09.736Z,100270.44
2018-12-16T02:34:12.223Z,100270.21
2018-12-16T02:35:14.689Z,100271.35
2018-12-16T02:36:17.155Z,100270.44
2018-12-16T02:37:19.724Z,100272.05
2018-12-16T02:38:22.216Z,100271.14
2018-12-16T02:39:24.702Z,100271.84
2018-12-16T02:40:27.182Z,100265.30
2018-12-16T02:41:29.669Z,100263.34
2018-12-16T02:42:32.154Z,100262.30
2018-12-16T02:43:34.647Z,100253.23
2018-12-16T02:44:37.123Z,100254.38
2018-12-16T02:45:39.680Z,100247.50
2018-12-16T02:46:42.172Z,100243.36
2018-12-16T02:47:47.164Z,100238.77
2018-12-16T02:48:49.663Z,100228.66
2018-12-16T02:49:52.167Z,100230.38
2018-12-16T02:50:54.628Z,100232.88
2018-12-16T02:51:57.127Z,100227.94
2018-12-16T02:53:04.478Z,100226.56
2018-12-16T02:54:04.258Z,100229.31
2018-12-16T02:55:06.866Z,100227.63
2018-12-16T02:56:09.360Z,100228.20
2018-12-16T02:57:11.841Z,100223.50
2018-12-16T02:58:14.304Z,100227.75
2018-12-16T02:59:16.790Z,100222.94
2018-12-16T03:00:19.247Z,100219.73
2018-12-16T03:01:21.750Z,100222.61
2018-12-16T03:02:24.207Z,100228.62
2018-12-16T03:04:28.489Z,100211.78
2018-12-16T03:05:30.944Z,100215.45
2018-12-16T03:06:33.432Z,100218.10
2018-12-16T03:07:35.915Z,100211.11
2018-12-16T03:08:38.414Z,100209.95
2018-12-16T03:09:40.908Z,100209.08
2018-12-16T03:10:43.516Z,100209.19
2018-12-16T03:11:45.989Z,100205.86
2018-12-16T03:12:48.485Z,100209.66
2018-12-16T03:13:50.959Z,100204.03
2018-12-16T03:14:53.453Z,100201.62
2018-12-16T03:15:55.926Z,100206.10
2018-12-16T03:16:58.417Z,100205.88
2018-12-16T03:18:00.894Z,100211.61
2018-12-16T03:19:03.391Z,100205.91
2018-12-16T03:20:06.064Z,100204.75
2018-12-16T03:21:08.533Z,100200.63
2018-12-16T03:22:11.009Z,100196.95
2018-12-16T03:23:13.592Z,100197.41
2018-12-16T03:24:16.052Z,100196.83
2018-12-16T03:25:18.628Z,100198.90
2018-12-16T03:26:21.113Z,100192.47
2018-12-16T03:27:23.609Z,100196.26
2018-12-16T03:28:26.097Z,100190.44
2018-12-16T03:29:28.565Z,100196.86
2018-12-16T03:30:31.090Z,100188.25
2018-12-16T03:31:33.676Z,100182.97
2018-12-16T03:32:36.138Z,100185.03
2018-12-16T03:33:38.616Z,100185.83
2018-12-16T03:34:41.094Z,100188.96
2018-12-16T03:35:43.602Z,100185.05
2018-12-16T03:36:46.061Z,100178.39
2018-12-16T03:37:48.538Z,100179.30
2018-12-16T03:38:51.013Z,100178.95
2018-12-16T03:39:53.495Z,100187.80
2018-12-16T03:40:55.982Z,100180.23
2018-12-16T03:41:58.512Z,100181.84
2018-12-16T03:43:00.998Z,100179.77
2018-12-16T03:44:03.705Z,100173.78
2018-12-16T03:45:06.412Z,100162.75
2018-12-16T03:46:08.899Z,100175.65
2018-12-16T03:47:11.383Z,100174.27
2018-12-16T03:48:13.860Z,100168.41
2018-12-16T03:49:16.330Z,100163.83
2018-12-16T03:50:18.811Z,100156.48
2018-12-16T03:51:21.288Z,100162.23
2018-12-16T03:52:23.777Z,100165.09
2018-12-16T03:53:26.256Z,100157.39
2018-12-16T03:54:28.746Z,100160.14
2018-12-16T03:55:31.237Z,100159.34
2018-12-16T03:56:33.720Z,100163.13
2018-12-16T03:57:36.195Z,100156.34
2018-12-16T04:00:11.387Z,100158.63
2018-12-16T04:01:13.848Z,100159.43
2018-12-16T04:02:16.329Z,100150.03
2018-12-16T04:03:18.807Z,100159.79
2018-12-16T04:04:21.301Z,100161.39
2018-12-16T04:05:23.760Z,100158.97
2018-12-16T04:06:26.234Z,100152.06
2018-12-16T04:07:28.731Z,100153.45
2018-12-16T04:08:31.202Z,100149.53
2018-12-16T04:09:33.680Z,100139.52
2018-12-16T04:10:36.301Z,100137.47
2018-12-16T04:11:38.794Z,100141.27
2018-12-16T04:12:41.272Z,100142.41
2018-12-16T04:13:43.738Z,100139.97
2018-12-16T04:14:46.228Z,100131.12
2018-12-16T04:15:48.710Z,100142.16
2018-12-16T04:16:51.191Z,100137.90
2018-12-16T04:17:53.677Z,100135.81
2018-12-16T04:18:56.165Z,100143.87
2018-12-16T04:19:58.642Z,100138.34
2018-12-16T04:21:01.120Z,100145.25
2018-12-16T04:22:03.676Z,100152.37
2018-12-16T04:23:06.183Z,100143.64
2018-12-16T04:24:08.683Z,100146.50
2018-12-16T04:25:11.147Z,100142.69
2018-12-16T04:26:13.631Z,100146.60
2018-12-16T04:27:16.092Z,100145.55
2018-12-16T04:28:18.673Z,100149.11
2018-12-16T04:29:21.174Z,100150.97
2018-12-16T04:30:23.648Z,100147.05
2018-12-16T04:31:26.131Z,100142.20
2018-12-16T04:32:28.601Z,100144.39
2018-12-16T04:33:31.109Z,100144.39
2018-12-16T04:34:33.586Z,100141.98
2018-12-16T04:35:36.200Z,100150.04
2018-12-16T04:36:38.676Z,100143.36
2018-12-16T04:37:41.166Z,100147.05
2018-12-16T04:38:43.670Z,100142.69
2018-12-16T04:39:46.148Z,100145.77
2018-12-16T04:40:48.622Z,100140.83
2018-12-16T04:41:51.113Z,100146.57
2018-12-16T04:42:53.589Z,100147.85
2018-12-16T04:43:56.071Z,100156.94
2018-12-16T04:44:58.537Z,100147.95
2018-12-16T04:46:01.006Z,100147.28
2018-12-16T04:47:03.470Z,100148.30
2018-12-16T04:48:05.944Z,100147.72
2018-12-16T04:49:08.464Z,100150.48
2018-12-16T04:50:10.946Z,100154.27
2018-12-16T04:51:13.425Z,100158.77
2018-12-16T04:52:15.908Z,100157.48
2018-12-16T04:53:18.372Z,100156.33
2018-12-16T04:54:20.876Z,100160.12
2018-12-16T04:55:23.351Z,100144.80
2018-12-16T04:56:25.830Z,100144.12
2018-12-16T04:57:28.321Z,100145.83
2018-12-16T04:58:30.817Z,100150.45
2018-12-16T04:59:33.304Z,100146.78
2018-12-16T05:00:35.836Z,100152.98
2018-12-16T05:01:38.306Z,100146.08
2018-12-16T05:02:40.763Z,100143.09
2018-12-16T05:03:43.238Z,100141.35
2018-12-16T05:04:45.715Z,100143.77
2018-12-16T05:05:48.214Z,100142.38
2018-12-16T05:06:50.697Z,100141.94
2018-12-16T05:07:53.180Z,100142.29
2018-12-16T05:08:55.664Z,100138.13
2018-12-16T05:11:31.548Z,100130.58
2018-12-16T05:12:34.032Z,100136.59
2018-12-16T05:13:36.516Z,100132.89
2018-12-16T05:14:38.993Z,100139.34
2018-12-16T05:15:41.522Z,100134.66
2018-12-16T05:16:44.003Z,100137.32
2018-12-16T05:17:46.487Z,100138.00
2018-12-16T05:18:48.969Z,100138.25
2018-12-16T05:19:51.445Z,100147.00
2018-12-16T05:20:53.957Z,100141.61
2018-12-16T05:21:56.415Z,100138.14
2018-12-16T05:22:58.876Z,100134.25
2018-12-16T05:24:01.351Z,100139.09
2018-12-16T05:25:03.962Z,100139.09
2018-12-16T05:26:06.463Z,100134.05
2018-12-16T05:27:08.952Z,100141.41
2018-12-16T05:28:11.435Z,100138.08
2018-12-16T05:29:13.915Z,100137.73
2018-12-16T05:30:16.390Z,100137.95
2018-12-16T05:31:18.863Z,100141.05
2018-12-16T05:32:21.324Z,100140.92
2018-12-16T05:33:23.799Z,100136.11
2018-12-16T05:34:26.263Z,100132.42
2018-12-16T05:35:28.728Z,100131.50
2018-12-16T05:36:31.249Z,100130.34
2018-12-16T05:37:33.747Z,100133.42
2018-12-16T05:38:36.216Z,100132.17
2018-12-16T05:39:38.711Z,100130.09
2018-12-16T05:40:41.205Z,100131.92
2018-12-16T05:41:43.698Z,100132.37
2018-12-16T05:42:46.251Z,100126.38
2018-12-16T05:43:48.850Z,100131.90
2018-12-16T05:44:51.322Z,100128.56
2018-12-16T05:45:53.815Z,100130.27
2018-12-16T05:46:56.303Z,100140.59
2018-12-16T05:47:58.765Z,100133.25
2018-12-16T05:49:01.358Z,100136.91
2018-12-16T05:50:05.284Z,100128.39
2018-12-16T05:51:07.781Z,100136.10
2018-12-16T05:52:10.276Z,100136.33
2018-12-16T05:53:12.745Z,100133.53
2018-12-16T05:54:15.277Z,100137.92
2018-12-16T05:55:17.813Z,100139.72
2018-12-16T05:56:20.378Z,100132.50
2018-12-16T05:57:22.851Z,100133.20
2018-12-16T05:58:25.326Z,100133.20
2018-12-16T05:59:27.806Z,100131.33
2018-12-16T06:00:30.282Z,100136.86
2018-12-16T06:01:32.764Z,100135.79
2018-12-16T06:02:35.243Z,100134.89
2018-12-16T06:03:37.736Z,100130.84
2018-12-16T06:04:40.219Z,100133.97
2018-12-16T06:05:42.698Z,100135.25
2018-12-16T06:06:45.289Z,100138.95
2018-12-16T06:07:47.751Z,100134.78
2018-12-16T06:08:50.222Z,100126.75
2018-12-16T06:09:52.713Z,100121.68
2018-12-16T06:10:55.247Z,100121.81
2018-12-16T06:11:57.747Z,100122.16
2018-12-16T06:13:00.241Z,100123.09
2018-12-16T06:14:02.704Z,100124.25
2018-12-16T06:15:05.406Z,100124.03
2018-12-16T06:16:07.878Z,100132.09
2018-12-16T06:17:10.498Z,100132.09
2018-12-16T06:18:12.956Z,100136.23
2018-12-16T06:19:15.435Z,100137.03
2018-12-16T06:20:17.912Z,100136.01
2018-12-16T06:21:20.426Z,100135.52
2018-12-16T06:22:22.912Z,100125.86
2018-12-16T06:23:25.373Z,100134.59
2018-12-16T06:24:27.835Z,100123.19
2018-12-16T06:25:30.333Z,100124.92
2018-12-16T06:26:32.838Z,100124.92
2018-12-16T06:27:35.353Z,100133.08
2018-12-16T06:28:37.849Z,100130.41
2018-12-16T06:29:41.607Z,100126.05
2018-12-16T06:30:44.353Z,100128.58
2018-12-16T06:31:46.838Z,100130.08
2018-12-16T06:32:49.349Z,100130.98
2018-12-16T06:33:51.838Z,100134.36
2018-12-16T06:34:54.318Z,100124.48
2018-12-16T06:35:56.795Z,100127.27
2018-12-16T06:36:59.260Z,100117.33
2018-12-16T06:38:01.742Z,100115.62
2018-12-16T06:39:05.247Z,100105.30
2018-12-16T06:40:07.745Z,100107.02
2018-12-16T06:41:10.223Z,100112.30
2018-12-16T06:42:12.710Z,100112.42
2018-12-16T06:43:15.210Z,100111.39
2018-12-16T06:44:17.683Z,100107.70
2018-12-16T06:45:20.170Z,100114.08
2018-12-16T06:46:22.640Z,100115.98
2018-12-16T06:47:25.226Z,100115.14
2018-12-16T06:48:27.753Z,100105.91
2018-12-16T06:49:30.407Z,100100.45
2018-12-16T06:50:32.905Z,100109.33
2018-12-16T06:51:35.390Z,100113.86
2018-12-16T06:52:37.871Z,100111.13
2018-12-16T06:53:40.393Z,100105.34
2018-12-16T06:54:42.877Z,100114.20
2018-12-16T06:55:45.354Z,100115.43
2018-12-16T06:56:47.844Z,100111.71
2018-12-16T06:57:50.308Z,100109.62
2018-12-16T06:58:52.811Z,100113.61
2018-12-16T06:59:55.280Z,100114.28
2018-12-16T07:00:57.744Z,100115.45
2018-12-16T07:02:01.103Z,100119.08
2018-12-16T07:03:03.596Z,100119.16
2018-12-16T07:04:06.158Z,100123.61
2018-12-16T07:05:08.706Z,100125.22
2018-12-16T07:06:11.191Z,100113.45
2018-12-16T07:07:13.675Z,100119.19
2018-12-16T07:08:16.140Z,100126.59
2018-12-16T07:09:18.649Z,100119.55
2018-12-16T07:10:21.126Z,100120.94
2018-12-16T07:11:23.603Z,100117.05
2018-12-16T07:12:26.071Z,100118.92
2018-12-16T07:13:28.564Z,100112.77
2018-12-16T07:14:31.053Z,100112.44
2018-12-16T07:15:33.543Z,100110.25
2018-12-16T07:16:36.018Z,100112.92
2018-12-16T07:17:38.500Z,100113.64
2018-12-16T07:18:40.960Z,100120.77
2018-12-16T07:19:43.473Z,100113.99
2018-12-16T07:20:45.961Z,100116.52
2018-12-16T07:21:48.480Z,100112.84
2018-12-16T07:22:51.040Z,100115.25
2018-12-16T07:23:53.614Z,100115.40
2018-12-16T07:24:56.112Z,100109.89
2018-12-16T07:25:58.620Z,100107.13
2018-12-16T07:27:01.106Z,100107.70
2018-12-16T07:28:03.607Z,100105.41
2018-12-16T07:29:06.256Z,100108.05
2018-12-16T07:30:09.227Z,100116.77
2018-12-16T07:31:11.695Z,100117.34
2018-12-16T07:32:14.174Z,100115.86
2018-12-16T07:33:17.183Z,100121.36
2018-12-16T07:34:19.781Z,100121.94
2018-12-16T07:35:22.394Z,100121.83
2018-12-16T07:36:24.899Z,100120.45
2018-12-16T07:37:27.406Z,100120.45
2018-12-16T07:38:29.873Z,100123.20
2018-12-16T07:39:32.355Z,100127.91
2018-12-16T07:40:34.859Z,100126.53
2018-12-16T07:41:37.482Z,100129.41
2018-12-16T07:42:39.969Z,100124.47
2018-12-16T07:43:42.443Z,100126.88
2018-12-16T07:44:45.028Z,100128.37
2018-12-16T07:45:47.699Z,100128.59
2018-12-16T07:46:50.237Z,100133.30
2018-12-16T07:47:52.714Z,100137.66
2018-12-16T07:48:55.432Z,100131.92
2018-12-16T07:49:57.920Z,100139.53
2018-12-16T07:51:00.403Z,100137.66
2018-12-16T07:52:02.887Z,100145.05
2018-12-16T07:53:05.441Z,100141.14
2018-12-16T07:54:07.992Z,100138.16
2018-12-16T07:55:10.482Z,100142.17
2018-12-16T07:56:12.990Z,100142.29
2018-12-16T07:57:15.481Z,100145.50
2018-12-16T07:58:17.985Z,100151.47
2018-12-16T07:59:20.470Z,100144.35
2018-12-16T08:00:23.024Z,100142.52
2018-12-16T08:01:25.567Z,100139.07
2018-12-16T08:02:28.196Z,100140.22
2018-12-16T08:03:30.769Z,100146.19
2018-12-16T08:04:33.239Z,100143.89
2018-12-16T08:05:35.705Z,100143.08
2018-12-16T08:06:38.316Z,100146.64
2018-12-16T08:07:40.827Z,100150.69
2018-12-16T08:08:43.338Z,100147.36
2018-12-16T08:09:45.835Z,100158.84
2018-12-16T08:10:48.308Z,100153.33
2018-12-16T08:11:50.843Z,100155.16
2018-12-16T08:12:53.309Z,100152.06
2018-12-16T08:13:55.879Z,100149.66
2018-12-16T08:14:58.379Z,100154.36
2018-12-16T08:16:00.876Z,100150.69
2018-12-16T08:17:03.374Z,100153.78
2018-12-16T08:18:06.021Z,100151.16
2018-12-16T08:19:08.607Z,100150.59
2018-12-16T08:20:11.093Z,100144.16
2018-12-16T08:21:13.621Z,100141.39
2018-12-16T08:22:16.128Z,100147.36
2018-12-16T08:23:18.620Z,100144.72
2018-12-16T08:24:23.273Z,100151.84
2018-12-16T08:25:25.646Z,100146.20
2018-12-16T08:26:28.184Z,100146.69
2018-12-16T08:27:30.697Z,100148.98
2018-12-16T08:28:33.402Z,100153.80
2018-12-16T08:29:35.934Z,100154.95
2018-12-16T08:30:38.498Z,100155.63
2018-12-16T08:31:41.005Z,100150.46
2018-12-16T08:32:43.506Z,100156.57
2018-12-16T08:33:45.990Z,100157.47
2018-12-16T08:34:48.455Z,100157.14
2018-12-16T08:35:50.938Z,100166.22
2018-12-16T08:36:53.422Z,100167.73
2018-12-16T08:37:56.034Z,100166.47
2018-12-16T08:38:58.724Z,100167.50
2018-12-16T08:40:01.230Z,100170.61
2018-12-16T08:41:03.722Z,100173.24
2018-12-16T08:42:06.198Z,100173.47
2018-12-16T08:43:08.701Z,100175.87
2018-12-16T08:44:11.183Z,100182.90
2018-12-16T08:45:13.837Z,100178.76
2018-12-16T08:46:16.319Z,100183.58
2018-12-16T08:47:18.844Z,100177.03
2018-12-16T08:48:21.346Z,100176.91
2018-12-16T08:49:23.808Z,100174.05
2018-12-16T08:50:26.658Z,100174.74
2018-12-16T08:51:29.144Z,100172.33
2018-12-16T08:52:31.650Z,100169.22
2018-12-16T08:53:34.149Z,100175.44
2018-12-16T08:54:36.634Z,100174.64
2018-12-16T08:55:39.118Z,100173.03
2018-12-16T08:56:42.435Z,100172.45
2018-12-16T08:57:44.946Z,100171.53
2018-12-16T08:58:47.650Z,100172.91
2018-12-16T08:59:50.293Z,100171.53
2018-12-16T09:00:52.760Z,100168.31
2018-12-16T09:01:55.529Z,100175.21
2018-12-16T09:02:58.050Z,100177.74
2018-12-16T09:04:00.710Z,100172.09
2018-12-16T09:05:03.518Z,100177.47
2018-12-16T09:06:06.010Z,100168.52
2018-12-16T09:07:08.626Z,100167.25
2018-12-16T09:08:11.139Z,100172.42
2018-12-16T09:09:13.785Z,100171.72
2018-12-16T09:10:16.258Z,100176.10
2018-12-16T09:11:18.746Z,100177.48
2018-12-16T09:12:21.250Z,100170.59
2018-12-16T09:13:23.850Z,100180.92
2018-12-16T09:14:26.368Z,100174.02
2018-12-16T09:15:28.832Z,100177.81
2018-12-16T09:16:31.296Z,100173.45
2018-12-16T09:17:33.778Z,100177.47
2018-12-16T09:18:36.291Z,100178.84
2018-12-16T09:19:38.820Z,100174.36
2018-12-16T09:20:41.299Z,100173.22
2018-12-16T09:21:43.783Z,100174.95
2018-12-16T09:22:46.262Z,100176.10
2018-12-16T09:23:48.758Z,100172.19
2018-12-16T09:24:51.224Z,100167.83
2018-12-16T09:25:53.721Z,100168.52
2018-12-16T09:26:56.207Z,100166.67
2018-12-16T09:27:58.709Z,100158.41
2018-12-16T09:29:01.210Z,100166.20
2018-12-16T09:30:05.411Z,100169.31
2018-12-16T09:31:07.891Z,100165.06
2018-12-16T09:32:10.380Z,100165.98
2018-12-16T09:33:12.880Z,100171.50
2018-12-16T09:34:15.383Z,100170.58
2018-12-16T09:35:17.864Z,100174.60
2018-12-16T09:36:20.370Z,100176.11
2018-12-16T09:37:22.873Z,100173.83
2018-12-16T09:38:25.451Z,100174.41
2018-12-16T09:39:27.955Z,100172.69
2018-12-16T09:40:30.453Z,100178.77
2018-12-16T09:41:32.938Z,100173.13
2018-12-16T09:42:35.437Z,100173.59
2018-12-16T09:43:37.934Z,100170.59
2018-12-16T09:44:40.726Z,100175.98
2018-12-16T09:45:49.296Z,100172.89
2018-12-16T09:46:47.704Z,100171.53
2018-12-16T09:47:50.426Z,100170.03
2018-12-16T09:48:52.930Z,100179.45
2018-12-16T09:49:55.560Z,100184.61
2018-12-16T09:50:58.078Z,100184.95
2018-12-16T09:52:00.631Z,100186.70
2018-12-16T09:53:03.132Z,100180.26
2018-12-16T09:54:05.609Z,100180.71
2018-12-16T09:55:08.179Z,100176.34
2018-12-16T09:56:10.677Z,100183.92
2018-12-16T09:57:13.184Z,100181.84
2018-12-16T09:58:15.664Z,100177.58
2018-12-16T09:59:18.159Z,100172.29
2018-12-16T10:00:20.820Z,100176.34
2018-12-16T10:01:23.284Z,100170.69
2018-12-16T10:02:25.766Z,100170.56
2018-12-16T10:03:28.245Z,100167.45
2018-12-16T10:04:30.747Z,100174.48
2018-12-16T10:05:33.228Z,100166.45
2018-12-16T10:06:35.688Z,100169.75
2018-12-16T10:07:38.180Z,100167.00
2018-12-16T10:08:40.662Z,100157.81
2018-12-16T10:09:43.142Z,100172.64
2018-12-16T10:10:45.642Z,100179.66
2018-12-16T10:11:48.283Z,100175.64
2018-12-16T10:12:50.786Z,100176.12
2018-12-16T10:13:53.300Z,100176.92
2018-12-16T10:14:55.776Z,100179.80
2018-12-16T10:15:58.293Z,100179.55
2018-12-16T10:17:00.775Z,100182.20
2018-12-16T10:18:03.249Z,100180.37
2018-12-16T10:19:06.007Z,100172.31
2018-12-16T10:20:09.743Z,100176.80
2018-12-16T10:21:12.247Z,100176.80
2018-12-16T10:22:14.724Z,100177.95
2018-12-16T10:23:17.246Z,100171.41
2018-12-16T10:24:19.821Z,100176.02
2018-12-16T10:25:22.343Z,100177.26
2018-12-16T10:26:24.839Z,100175.16
2018-12-16T10:27:27.346Z,100171.15
2018-12-16T10:28:29.846Z,100175.41
2018-12-16T10:29:32.348Z,100178.41
2018-12-16T10:30:34.850Z,100172.40
2018-12-16T10:31:37.387Z,100176.20
2018-12-16T10:32:39.894Z,100177.47
2018-12-16T10:33:42.390Z,100177.36
2018-12-16T10:34:44.859Z,100177.45
2018-12-16T10:35:47.357Z,100179.28
2018-12-16T10:36:50.102Z,100173.31
2018-12-16T10:37:52.686Z,100176.77
2018-12-16T10:38:55.236Z,100167.58
2018-12-16T10:39:57.728Z,100183.17
2018-12-16T10:41:00.215Z,100180.88
2018-12-16T10:42:02.730Z,100182.36
2018-12-16T10:43:05.237Z,100179.00
2018-12-16T10:44:07.737Z,100178.77
2018-12-16T10:45:10.458Z,100176.82
2018-12-16T10:46:12.958Z,100173.27
2018-12-16T10:47:15.474Z,100173.98
2018-12-16T10:48:17.964Z,100170.31
2018-12-16T10:49:20.465Z,100171.91
2018-12-16T10:50:22.969Z,100173.98
2018-12-16T10:51:25.466Z,100175.47
2018-12-16T10:52:27.967Z,100170.65
2018-12-16T10:53:30.437Z,100166.20
2018-12-16T10:54:32.923Z,100162.75
2018-12-16T10:55:35.384Z,100171.48
2018-12-16T10:56:37.853Z,100163.55
2018-12-16T10:57:40.355Z,100169.86
2018-12-16T10:58:42.843Z,100162.51
2018-12-16T10:59:45.322Z,100168.05
2018-12-16T11:00:53.540Z,100168.50
2018-12-16T11:01:56.046Z,100170.13
2018-12-16T11:02:58.557Z,100165.52
2018-12-16T11:04:01.054Z,100165.30
2018-12-16T11:05:03.909Z,100167.02
2018-12-16T11:06:06.410Z,100168.75
2018-12-16T11:07:08.910Z,100169.87
2018-12-16T11:08:11.442Z,100167.00
2018-12-16T11:09:13.912Z,100164.02
2018-12-16T11:10:16.403Z,100169.42
2018-12-16T11:11:18.874Z,100170.34
2018-12-16T11:12:21.448Z,100162.77
2018-12-16T11:13:23.968Z,100165.95
2018-12-16T11:14:26.432Z,100164.58
2018-12-16T11:15:28.910Z,100158.95
2018-12-16T11:16:31.396Z,100162.19
2018-12-16T11:17:33.897Z,100165.05
2018-12-16T11:18:36.428Z,100155.50
2018-12-16T11:19:38.928Z,100161.86
2018-12-16T11:20:41.479Z,100161.38
2018-12-16T11:21:43.994Z,100159.30
2018-12-16T11:22:46.479Z,100154.02
2018-12-16T11:23:53.746Z,100157.35
2018-12-16T11:24:53.529Z,100152.53
2018-12-16T11:25:56.346Z,100154.72
2018-12-16T11:26:58.830Z,100156.44
2018-12-16T11:28:01.346Z,100165.64
2018-12-16T11:29:03.834Z,100158.52
2018-12-16T11:30:08.197Z,100158.95
2018-12-16T11:31:11.785Z,100163.66
2018-12-16T11:32:15.721Z,100164.58
2018-12-16T11:33:19.594Z,100162.17
2018-12-16T11:34:23.750Z,100161.14
2018-12-16T11:35:27.777Z,100160.11
2018-12-16T11:36:31.591Z,100152.98
2018-12-16T11:37:34.170Z,100141.27
2018-12-16T11:38:36.709Z,100144.60
2018-12-16T11:39:39.205Z,100140.24
2018-12-16T11:40:41.691Z,100154.02
2018-12-16T11:41:44.193Z,100155.17
2018-12-16T11:42:46.675Z,100149.31
2018-12-16T11:43:49.172Z,100145.75
2018-12-16T11:44:51.640Z,100140.47
2018-12-16T11:45:54.126Z,100139.78
2018-12-16T11:46:56.624Z,100135.64
2018-12-16T11:47:59.187Z,100132.08
2018-12-16T11:49:01.738Z,100145.06
2018-12-16T11:50:04.569Z,100137.71
2018-12-16T11:51:07.069Z,100139.66
2018-12-16T11:52:09.557Z,100135.30
2018-12-16T11:53:12.042Z,100136.45
2018-12-16T11:54:14.565Z,100140.81
2018-12-16T11:55:17.057Z,100131.25
2018-12-16T11:56:19.528Z,100135.39
2018-12-16T11:57:22.005Z,100133.20
2018-12-16T11:58:24.494Z,100133.78
2018-12-16T11:59:26.995Z,100132.63
2018-12-16T12:00:29.479Z,100139.64
2018-12-16T12:01:31.962Z,100137.00
2018-12-16T12:02:34.429Z,100135.05